createdAt,value
2019-02-17T00:01:42.360Z,-0.80
2019-02-17T00:04:33.199Z,-0.80
2019-02-17T00:07:24.142Z,-0.80
2019-02-17T00:10:16.577Z,-0.80
2019-02-17T00:13:07.378Z,-0.90
2019-02-17T00:15:58.341Z,-0.90
2019-02-17T00:18:49.577Z,-1.00
2019-02-17T00:21:40.480Z,-1.00
2019-02-17T00:24:30.980Z,-1.00
2019-02-17T00:27:21.862Z,-1.10
2019-02-17T00:30:12.721Z,-1.10
2019-02-17T00:33:03.418Z,-1.10
2019-02-17T00:35:54.162Z,-1.10
2019-02-17T00:38:46.317Z,-1.20
2019-02-17T00:41:37.857Z,-1.20
2019-02-17T00:44:29.358Z,-1.20
2019-02-17T00:47:20.578Z,-1.20
2019-02-17T00:50:11.461Z,-1.30
2019-02-17T00:53:02.338Z,-1.30
2019-02-17T00:55:53.521Z,-1.40
2019-02-17T00:58:44.259Z,-1.40
2019-02-17T01:01:35.622Z,-1.40
2019-02-17T01:04:26.604Z,-1.40
2019-02-17T01:07:18.323Z,-1.40
2019-02-17T01:10:09.243Z,-1.40
2019-02-17T01:13:00.121Z,-1.40
2019-02-17T01:15:51.303Z,-1.50
2019-02-17T01:18:41.898Z,-1.50
2019-02-17T01:21:32.421Z,-1.50
2019-02-17T01:24:23.924Z,-1.50
2019-02-17T01:27:15.186Z,-1.50
2019-02-17T01:30:06.661Z,-1.50
2019-02-17T01:32:58.504Z,-1.60
2019-02-17T01:35:49.381Z,-1.60
2019-02-17T01:38:40.601Z,-1.60
2019-02-17T01:41:31.781Z,-1.60
2019-02-17T01:44:22.663Z,-1.60
2019-02-17T01:47:13.539Z,-1.60
2019-02-17T01:50:05.121Z,-1.60
2019-02-17T01:52:55.941Z,-1.70
2019-02-17T01:55:47.066Z,-1.70
2019-02-17T01:58:38.663Z,-1.80
2019-02-17T02:01:29.645Z,-1.80
2019-02-17T02:04:21.541Z,-1.80
2019-02-17T02:07:12.259Z,-1.90
2019-02-17T02:10:03.439Z,-1.90
2019-02-17T02:12:54.319Z,-1.90
2019-02-17T02:15:45.538Z,-2.00
2019-02-17T02:18:36.423Z,-2.00
2019-02-17T02:21:27.921Z,-2.00
2019-02-17T02:24:18.802Z,-2.00
2019-02-17T02:27:10.858Z,-2.00
2019-02-17T02:30:01.221Z,-2.00
2019-02-17T02:32:52.717Z,-2.10
2019-02-17T02:35:43.342Z,-2.10
2019-02-17T02:38:34.517Z,-2.10
2019-02-17T02:41:34.414Z,-2.10
2019-02-17T02:44:18.063Z,-2.10
2019-02-17T02:47:09.059Z,-2.20
2019-02-17T02:49:59.742Z,-2.20
2019-02-17T02:52:50.480Z,-2.20
2019-02-17T02:55:41.365Z,-2.20
2019-02-17T02:58:31.938Z,-2.20
2019-02-17T03:01:55.574Z,-2.20
2019-02-17T03:04:46.650Z,-2.20
2019-02-17T03:07:38.271Z,-2.20
2019-02-17T03:10:30.670Z,-2.20
2019-02-17T03:13:20.832Z,-2.20
2019-02-17T03:16:12.133Z,-2.20
2019-02-17T03:19:03.031Z,-2.30
2019-02-17T03:21:54.342Z,-2.30
2019-02-17T03:24:45.391Z,-2.30
2019-02-17T03:27:36.290Z,-2.30
2019-02-17T03:30:27.176Z,-2.30
2019-02-17T03:33:18.355Z,-2.30
2019-02-17T03:36:09.210Z,-2.30
2019-02-17T03:39:00.093Z,-2.30
2019-02-17T03:41:51.330Z,-2.30
2019-02-17T03:44:46.150Z,-2.40
2019-02-17T03:47:38.651Z,-2.40
2019-02-17T03:50:29.371Z,-2.40
2019-02-17T03:53:20.911Z,-2.50
2019-02-17T03:56:12.092Z,-2.50
2019-02-17T03:59:03.292Z,-2.50
2019-02-17T04:01:54.013Z,-2.60
2019-02-17T04:04:45.371Z,-2.70
2019-02-17T04:07:35.632Z,-2.70
2019-02-17T04:10:27.130Z,-2.80
2019-02-17T04:13:18.030Z,-2.80
2019-02-17T04:16:08.712Z,-2.80
2019-02-17T04:18:59.451Z,-2.90
2019-02-17T04:21:50.473Z,-2.90
2019-02-17T04:24:41.292Z,-2.90
2019-02-17T04:27:32.092Z,-3.00
2019-02-17T04:30:29.411Z,-3.00
2019-02-17T04:33:15.271Z,-3.00
2019-02-17T04:36:06.970Z,-3.10
2019-02-17T04:38:57.348Z,-3.10
2019-02-17T04:41:48.344Z,-3.10
2019-02-17T04:44:39.612Z,-3.10
2019-02-17T04:47:30.871Z,-3.20
2019-02-17T04:50:21.441Z,-3.20
2019-02-17T04:53:12.090Z,-3.20
2019-02-17T04:56:03.771Z,-3.10
2019-02-17T04:58:54.973Z,-3.10
2019-02-17T05:01:45.279Z,-3.20
2019-02-17T05:04:35.811Z,-3.20
2019-02-17T05:07:26.387Z,-3.30
2019-02-17T05:10:16.391Z,-3.30
2019-02-17T05:13:07.450Z,-3.30
2019-02-17T05:15:59.353Z,-3.30
2019-02-17T05:18:49.852Z,-3.30
2019-02-17T05:21:40.731Z,-3.40
2019-02-17T05:24:30.972Z,-3.40
2019-02-17T05:27:21.691Z,-3.40
2019-02-17T05:30:12.417Z,-3.30
2019-02-17T05:33:03.935Z,-3.30
2019-02-17T05:35:55.131Z,-3.30
2019-02-17T05:38:45.370Z,-3.30
2019-02-17T05:41:37.212Z,-3.20
2019-02-17T05:44:27.932Z,-3.20
2019-02-17T05:47:18.972Z,-3.20
2019-02-17T05:50:09.821Z,-3.20
2019-02-17T05:52:59.491Z,-3.20
2019-02-17T05:55:50.084Z,-3.20
2019-02-17T05:58:40.894Z,-3.20
2019-02-17T06:01:31.348Z,-3.20
2019-02-17T06:04:22.011Z,-3.20
2019-02-17T06:07:13.110Z,-3.20
2019-02-17T06:10:03.773Z,-3.20
2019-02-17T06:12:53.872Z,-3.20
2019-02-17T06:15:44.150Z,-3.10
2019-02-17T06:18:35.231Z,-3.10
2019-02-17T06:21:26.012Z,-3.10
2019-02-17T06:24:16.315Z,-3.00
2019-02-17T06:27:07.772Z,-3.00
2019-02-17T06:29:58.852Z,-2.90
2019-02-17T06:32:49.853Z,-2.90
2019-02-17T06:35:40.731Z,-2.80
2019-02-17T06:38:30.991Z,-2.70
2019-02-17T06:41:22.074Z,-2.60
2019-02-17T06:44:13.053Z,-2.60
2019-02-17T06:47:05.874Z,-2.50
2019-02-17T06:49:57.371Z,-2.40
2019-02-17T06:52:48.254Z,-2.30
2019-02-17T06:55:49.453Z,-2.20
2019-02-17T06:58:40.572Z,-2.10
2019-02-17T07:01:31.153Z,-2.00
2019-02-17T07:04:28.413Z,-1.90
2019-02-17T07:07:18.989Z,-1.80
2019-02-17T07:10:09.326Z,-1.60
2019-02-17T07:13:00.091Z,-1.50
2019-02-17T07:15:51.151Z,-1.30
2019-02-17T07:18:42.179Z,-1.20
2019-02-17T07:21:32.551Z,-1.00
2019-02-17T07:24:23.637Z,-0.80
2019-02-17T07:27:13.759Z,-0.60
2019-02-17T07:30:04.591Z,-0.30
2019-02-17T07:32:55.612Z,-0.10
2019-02-17T07:35:46.179Z,0.20
2019-02-17T07:38:36.173Z,0.50
2019-02-17T07:41:27.291Z,0.90
2019-02-17T07:44:18.176Z,2.10
2019-02-17T07:47:10.656Z,4.00
2019-02-17T07:50:01.820Z,5.50
2019-02-17T07:52:52.736Z,6.00
2019-02-17T07:55:44.011Z,6.60
2019-02-17T07:58:34.385Z,7.90
2019-02-17T08:01:26.372Z,8.80
2019-02-17T08:04:17.253Z,9.60
2019-02-17T08:07:08.095Z,10.30
2019-02-17T08:10:00.608Z,11.50
2019-02-17T08:12:50.971Z,12.70
2019-02-17T08:15:42.413Z,13.80
2019-02-17T08:18:33.280Z,14.50
2019-02-17T08:21:23.066Z,14.90
2019-02-17T08:24:14.076Z,15.20
2019-02-17T08:27:05.394Z,15.10
2019-02-17T08:29:56.408Z,12.90
2019-02-17T08:32:46.659Z,11.00
2019-02-17T08:35:37.212Z,9.80
2019-02-17T08:38:28.074Z,10.70
2019-02-17T08:41:19.292Z,11.80
2019-02-17T08:44:10.557Z,11.20
2019-02-17T08:47:01.712Z,10.30
2019-02-17T08:49:52.252Z,9.40
2019-02-17T08:52:42.814Z,8.70
2019-02-17T08:55:33.073Z,8.30
2019-02-17T08:58:23.792Z,8.00
2019-02-17T09:01:14.192Z,7.90
2019-02-17T09:04:06.114Z,8.40
2019-02-17T09:06:56.889Z,9.70
2019-02-17T09:09:47.956Z,9.60
2019-02-17T09:12:38.653Z,9.40
2019-02-17T09:15:29.592Z,9.90
2019-02-17T09:18:20.361Z,11.30
2019-02-17T09:21:10.593Z,12.00
2019-02-17T09:24:01.592Z,11.80
2019-02-17T09:26:52.096Z,11.90
2019-02-17T09:29:42.671Z,12.10
2019-02-17T09:32:33.712Z,11.80
2019-02-17T09:35:24.334Z,11.50
2019-02-17T09:38:17.179Z,11.30
2019-02-17T09:41:08.732Z,11.20
2019-02-17T09:44:12.654Z,11.20
2019-02-17T09:47:04.572Z,11.80
2019-02-17T09:49:56.172Z,12.00
2019-02-17T09:52:46.992Z,12.10
2019-02-17T09:55:37.853Z,12.70
2019-02-17T09:58:29.082Z,12.80
2019-02-17T10:01:19.612Z,13.00
2019-02-17T10:04:10.252Z,13.00
2019-02-17T10:07:01.072Z,13.20
2019-02-17T10:09:51.956Z,13.60
2019-02-17T10:12:43.131Z,15.10
2019-02-17T10:15:34.032Z,16.20
2019-02-17T10:18:24.832Z,16.70
2019-02-17T10:21:14.985Z,17.00
2019-02-17T10:24:06.012Z,17.40
2019-02-17T10:26:57.912Z,17.00
2019-02-17T10:29:51.935Z,16.70
2019-02-17T10:32:44.217Z,16.40
2019-02-17T10:35:35.072Z,16.40
2019-02-17T10:38:26.432Z,16.10
2019-02-17T10:41:17.371Z,16.50
2019-02-17T10:44:07.466Z,18.10
2019-02-17T10:46:58.176Z,19.70
2019-02-17T10:49:49.421Z,20.90
2019-02-17T10:52:40.574Z,22.30
2019-02-17T10:55:31.451Z,22.70
2019-02-17T10:58:22.052Z,22.00
2019-02-17T11:01:14.172Z,21.80
2019-02-17T11:04:12.751Z,21.70
2019-02-17T11:07:03.314Z,21.80
2019-02-17T11:09:54.512Z,22.70
2019-02-17T11:12:45.094Z,22.80
2019-02-17T11:15:35.992Z,23.10
2019-02-17T11:18:27.452Z,23.60
2019-02-17T11:21:19.012Z,24.40
2019-02-17T11:24:10.511Z,25.20
2019-02-17T11:27:00.732Z,25.50
2019-02-17T11:29:52.312Z,26.00
2019-02-17T11:32:42.973Z,26.30
2019-02-17T11:35:34.657Z,25.90
2019-02-17T11:38:25.532Z,25.80
2019-02-17T11:41:16.092Z,24.60
2019-02-17T11:44:06.613Z,23.20
2019-02-17T11:46:58.192Z,22.20
2019-02-17T11:49:49.052Z,21.50
2019-02-17T11:52:39.651Z,21.20
2019-02-17T11:55:31.156Z,21.20
2019-02-17T11:58:21.656Z,20.80
2019-02-17T12:01:12.253Z,21.50
2019-02-17T12:04:03.154Z,23.10
2019-02-17T12:06:53.436Z,24.70
2019-02-17T12:09:44.573Z,25.10
2019-02-17T12:12:34.832Z,25.40
2019-02-17T12:15:25.096Z,25.70
2019-02-17T12:18:15.007Z,26.30
2019-02-17T12:21:14.492Z,25.80
2019-02-17T12:24:12.734Z,25.20
2019-02-17T12:27:35.072Z,25.00
2019-02-17T12:30:26.832Z,24.50
2019-02-17T12:33:21.517Z,23.90
2019-02-17T12:36:10.812Z,23.00
2019-02-17T12:39:02.994Z,23.30
2019-02-17T12:41:54.954Z,23.50
2019-02-17T12:44:46.031Z,23.60
2019-02-17T12:47:36.694Z,24.30
2019-02-17T12:50:27.872Z,25.60
2019-02-17T12:53:18.351Z,26.60
2019-02-17T12:56:08.893Z,28.20
2019-02-17T12:58:59.412Z,29.30
2019-02-17T13:01:50.352Z,30.60
2019-02-17T13:04:41.212Z,31.80
2019-02-17T13:07:32.412Z,32.40
2019-02-17T13:10:22.973Z,32.80
2019-02-17T13:13:13.695Z,32.00
2019-02-17T13:16:04.554Z,32.00
2019-02-17T13:18:55.932Z,32.60
2019-02-17T13:21:47.774Z,33.10
2019-02-17T13:24:38.658Z,33.50
2019-02-17T13:27:29.313Z,33.70
2019-02-17T13:30:22.253Z,33.30
2019-02-17T13:33:14.395Z,33.20
2019-02-17T13:36:06.354Z,34.20
2019-02-17T13:38:59.686Z,33.90
2019-02-17T13:41:51.313Z,34.20
2019-02-17T13:44:42.512Z,33.90
2019-02-17T13:47:33.279Z,34.10
2019-02-17T13:50:25.534Z,34.80
2019-02-17T13:53:16.735Z,34.10
2019-02-17T13:56:07.774Z,33.90
2019-02-17T13:58:58.173Z,33.80
2019-02-17T14:01:49.052Z,32.90
2019-02-17T14:04:40.574Z,32.50
2019-02-17T14:07:31.472Z,32.80
2019-02-17T14:10:22.492Z,32.70
2019-02-17T14:13:12.251Z,32.00
2019-02-17T14:16:02.673Z,30.70
2019-02-17T14:18:53.371Z,29.50
2019-02-17T14:21:43.917Z,28.50
2019-02-17T14:24:35.797Z,27.70
2019-02-17T14:27:26.632Z,27.10
2019-02-17T14:30:17.873Z,27.40
2019-02-17T14:33:08.712Z,27.10
2019-02-17T14:35:59.393Z,26.60
2019-02-17T14:38:50.513Z,25.60
2019-02-17T14:41:42.561Z,25.60
2019-02-17T14:44:33.532Z,24.50
2019-02-17T14:47:24.411Z,23.90
2019-02-17T14:50:23.136Z,23.20
2019-02-17T14:53:16.051Z,22.30
2019-02-17T14:56:06.652Z,21.20
2019-02-17T14:58:57.372Z,20.40
2019-02-17T15:01:48.134Z,20.00
2019-02-17T15:04:39.355Z,19.80
2019-02-17T15:07:30.559Z,19.40
2019-02-17T15:10:21.694Z,19.00
2019-02-17T15:13:24.918Z,18.50
2019-02-17T15:16:19.156Z,18.00
2019-02-17T15:19:09.792Z,17.70
2019-02-17T15:22:00.076Z,17.60
2019-02-17T15:24:50.812Z,17.50
2019-02-17T15:27:41.851Z,17.60
2019-02-17T15:30:33.211Z,17.50
2019-02-17T15:33:23.761Z,16.90
2019-02-17T15:36:15.052Z,16.30
2019-02-17T15:39:07.502Z,15.80
2019-02-17T15:41:58.995Z,15.10
2019-02-17T15:44:49.874Z,14.60
2019-02-17T15:47:40.971Z,14.00
2019-02-17T15:50:32.013Z,13.50
2019-02-17T15:53:23.093Z,13.10
2019-02-17T15:56:15.176Z,12.80
2019-02-17T15:59:05.876Z,12.30
2019-02-17T16:01:56.438Z,11.90
2019-02-17T16:04:47.032Z,11.40
2019-02-17T16:07:38.171Z,11.00
2019-02-17T16:10:32.445Z,10.70
2019-02-17T16:13:23.775Z,10.40
2019-02-17T16:16:14.992Z,10.10
2019-02-17T16:19:05.853Z,9.80
2019-02-17T16:21:56.112Z,9.50
2019-02-17T16:24:47.262Z,9.30
2019-02-17T16:27:38.032Z,9.00
2019-02-17T16:30:28.914Z,8.80
2019-02-17T16:33:19.313Z,8.50
2019-02-17T16:36:10.175Z,8.30
2019-02-17T16:39:00.912Z,8.10
2019-02-17T16:41:53.253Z,7.90
2019-02-17T16:44:43.351Z,7.70
2019-02-17T16:47:34.051Z,7.50
2019-02-17T16:50:24.527Z,7.30
2019-02-17T16:53:15.191Z,7.20
2019-02-17T16:56:07.303Z,7.00
2019-02-17T16:58:58.412Z,6.70
2019-02-17T17:01:48.470Z,6.60
2019-02-17T17:04:47.829Z,6.40
2019-02-17T17:07:30.793Z,6.30
2019-02-17T17:10:21.453Z,6.10
2019-02-17T17:13:12.132Z,6.00
2019-02-17T17:16:02.814Z,5.80
2019-02-17T17:18:53.372Z,5.70
2019-02-17T17:21:43.429Z,5.60
2019-02-17T17:24:34.021Z,5.50
2019-02-17T17:27:25.056Z,5.30
2019-02-17T17:30:15.794Z,5.20
2019-02-17T17:33:07.139Z,5.10
2019-02-17T17:36:20.286Z,5.00
2019-02-17T17:39:52.317Z,4.90
2019-02-17T17:42:48.024Z,4.80
2019-02-17T17:50:29.001Z,4.50
2019-02-17T17:53:47.627Z,4.40
2019-02-17T17:57:16.806Z,4.20
2019-02-17T18:00:51.196Z,4.10
2019-02-17T18:03:52.222Z,4.10
2019-02-17T18:07:10.687Z,4.00
2019-02-17T18:10:05.768Z,3.90
2019-02-17T18:13:29.808Z,3.80
2019-02-17T18:16:20.062Z,3.70
2019-02-17T18:19:13.518Z,3.60
2019-02-17T18:27:04.122Z,3.40
2019-02-17T18:31:15.665Z,3.30
2019-02-17T18:35:44.673Z,3.20
2019-02-17T18:39:27.045Z,3.10
2019-02-17T18:43:33.703Z,2.90
2019-02-17T18:47:27.917Z,2.80
2019-02-17T18:50:25.216Z,2.70
2019-02-17T18:53:52.957Z,2.60
2019-02-17T18:57:59.346Z,2.50
2019-02-17T19:02:24.073Z,2.40
2019-02-17T19:05:34.582Z,2.20
2019-02-17T19:08:25.568Z,2.10
2019-02-17T19:11:19.695Z,2.10
2019-02-17T19:14:10.972Z,2.00
2019-02-17T19:17:02.716Z,2.00
2019-02-17T19:19:54.854Z,1.90
2019-02-17T19:22:46.693Z,1.90
2019-02-17T19:25:37.735Z,1.80
2019-02-17T19:28:29.434Z,1.80
2019-02-17T19:31:20.509Z,1.80
2019-02-17T19:34:11.571Z,1.70
2019-02-17T19:37:02.652Z,1.60
2019-02-17T19:39:53.133Z,1.50
2019-02-17T19:42:45.192Z,1.50
2019-02-17T19:45:36.812Z,1.40
2019-02-17T19:48:28.442Z,1.40
2019-02-17T19:51:20.212Z,1.30
2019-02-17T19:54:20.269Z,1.30
2019-02-17T19:57:20.893Z,1.20
2019-02-17T20:00:14.561Z,1.10
2019-02-17T20:03:26.298Z,1.10
2019-02-17T20:06:23.563Z,1.00
2019-02-17T20:09:21.292Z,1.00
2019-02-17T20:12:12.495Z,0.90
2019-02-17T20:15:03.699Z,0.90
2019-02-17T20:17:53.784Z,0.90
2019-02-17T20:20:43.817Z,0.90
2019-02-17T20:23:34.065Z,0.80
2019-02-17T20:26:24.487Z,0.80
2019-02-17T20:29:15.792Z,0.80
2019-02-17T20:32:06.153Z,0.70
2019-02-17T20:35:00.316Z,0.70
2019-02-17T20:37:50.824Z,0.70
2019-02-17T20:40:41.612Z,0.60
2019-02-17T20:43:32.547Z,0.60
2019-02-17T20:46:23.201Z,0.60
2019-02-17T20:49:20.927Z,0.50
2019-02-17T20:52:11.719Z,0.50
2019-02-17T20:55:05.214Z,0.50
2019-02-17T20:57:57.739Z,0.50
2019-02-17T21:00:49.227Z,0.40
2019-02-17T21:03:40.132Z,0.30
2019-02-17T21:06:31.653Z,0.30
2019-02-17T21:09:22.992Z,0.20
2019-02-17T21:12:14.051Z,0.20
2019-02-17T21:15:04.893Z,0.20
2019-02-17T21:17:55.472Z,0.20
2019-02-17T21:20:46.293Z,0.10
2019-02-17T21:23:37.217Z,0.10
2019-02-17T21:26:27.794Z,0.00
2019-02-17T21:29:18.991Z,0.00
2019-02-17T21:32:09.872Z,0.00
2019-02-17T21:35:00.452Z,0.00
2019-02-17T21:37:51.752Z,-0.10
2019-02-17T21:40:42.811Z,-0.20
2019-02-17T21:43:34.332Z,-0.30
2019-02-17T21:46:27.317Z,-0.40
2019-02-17T21:49:18.054Z,-0.40
2019-02-17T21:52:09.595Z,-0.50
2019-02-17T21:55:00.038Z,-0.50
2019-02-17T21:57:50.713Z,-0.50
2019-02-17T22:00:42.412Z,-0.60
2019-02-17T22:03:33.391Z,-0.60
2019-02-17T22:06:33.303Z,-0.60
2019-02-17T22:09:17.059Z,-0.60
2019-02-17T22:12:07.952Z,-0.70
2019-02-17T22:14:59.171Z,-0.70
2019-02-17T22:17:50.012Z,-0.70
2019-02-17T22:20:41.212Z,-0.70
2019-02-17T22:23:33.512Z,-0.70
2019-02-17T22:26:24.592Z,-0.70
2019-02-17T22:29:14.872Z,-0.70
2019-02-17T22:32:06.672Z,-0.70
2019-02-17T22:34:56.812Z,-0.70
2019-02-17T22:37:48.774Z,-0.80
2019-02-17T22:40:40.572Z,-0.80
2019-02-17T22:43:32.912Z,-0.80
2019-02-17T22:46:23.771Z,-0.80
2019-02-17T22:49:15.032Z,-0.80
2019-02-17T22:52:05.891Z,-0.80
2019-02-17T22:54:56.430Z,-0.80
2019-02-17T22:57:47.132Z,-0.90
2019-02-17T23:00:48.572Z,-0.90
2019-02-17T23:03:38.973Z,-1.00
2019-02-17T23:06:30.831Z,-1.00
2019-02-17T23:09:21.857Z,-1.10
2019-02-17T23:12:13.413Z,-1.10
2019-02-17T23:15:03.551Z,-1.20
2019-02-17T23:17:54.494Z,-1.20
2019-02-17T23:20:44.932Z,-1.20
2019-02-17T23:23:35.933Z,-1.20
2019-02-17T23:26:27.133Z,-1.20
2019-02-17T23:29:18.333Z,-1.20
2019-02-17T23:32:08.283Z,-1.20
2019-02-17T23:34:59.171Z,-1.20
2019-02-17T23:37:49.691Z,-1.30
2019-02-17T23:40:40.987Z,-1.30
2019-02-17T23:43:31.716Z,-1.30
2019-02-17T23:46:23.292Z,-1.30
2019-02-17T23:49:13.715Z,-1.30
2019-02-17T23:52:05.051Z,-1.30
2019-02-17T23:54:56.352Z,-1.30
2019-02-17T23:57:46.852Z,-1.30
